Time;durP1;ratioP1;P1;durP2;ratioP2;P2;SDS_P1;SDS_P2;PMS_P1;PMS_P2;Temp;Humidity;BMP_temperature;BMP_pressure;BME280_temperature;BME280_humidity;BME280_pressure;Samples;Min_cycle;Max_cycle;Signal;HPM_P1;HPM_P2
2022/03/04 00:02:21;;;;;;;12.93;5.80;;;9.10;67.30;;;;;;5042124;28;20083;-64
2022/03/04 00:04:46;;;;;;;9.75;5.05;;;9.10;67.30;;;;;;5041426;28;20037;-65
2022/03/04 00:07:12;;;;;;;11.18;5.70;;;9.10;67.50;;;;;;5038546;28;20034;-64
2022/03/04 00:09:37;;;;;;;13.80;5.25;;;9.10;67.50;;;;;;5042606;28;20395;-65
2022/03/04 00:12:03;;;;;;;15.90;6.85;;;9.10;67.40;;;;;;5034793;28;20025;-64
2022/03/04 00:14:30;;;;;;;11.60;5.40;;;9.10;67.20;;;;;;5042479;28;20117;-64
2022/03/04 00:16:56;;;;;;;14.55;5.50;;;9.10;67.10;;;;;;5039479;28;20500;-64
2022/03/04 00:19:21;;;;;;;13.50;5.60;;;9.10;67.30;;;;;;5041568;28;20101;-64
2022/03/04 00:21:49;;;;;;;16.52;6.07;;;9.10;67.40;;;;;;5041163;28;20028;-64
2022/03/04 00:24:17;;;;;;;13.38;5.53;;;9.10;67.60;;;;;;5038884;28;20022;-64
2022/03/04 00:26:43;;;;;;;14.05;5.95;;;9.10;67.70;;;;;;5043758;28;20061;-64
2022/03/04 00:29:09;;;;;;;16.30;4.82;;;9.10;67.50;;;;;;5040220;28;20055;-64
2022/03/04 00:31:35;;;;;;;14.27;5.65;;;9.10;67.50;;;;;;5041417;28;20565;-64
2022/03/04 00:34:02;;;;;;;14.38;5.63;;;9.10;67.50;;;;;;5039886;28;20025;-64
2022/03/04 00:36:29;;;;;;;18.13;5.78;;;9.10;68.30;;;;;;5042960;28;20026;-64
2022/03/04 00:38:56;;;;;;;15.18;5.28;;;9.10;67.70;;;;;;5041659;28;20520;-64
2022/03/04 00:41:23;;;;;;;10.43;5.25;;;9.00;67.70;;;;;;5038696;28;20028;-66
2022/03/04 00:43:50;;;;;;;19.20;6.22;;;9.10;67.60;;;;;;5038168;28;20029;-64
2022/03/04 00:46:16;;;;;;;11.98;5.47;;;9.10;67.70;;;;;;5041416;28;20130;-64
2022/03/04 00:48:43;;;;;;;11.73;5.63;;;9.10;67.50;;;;;;5039824;28;20033;-63
2022/03/04 00:51:10;;;;;;;16.63;6.22;;;9.10;67.50;;;;;;5041176;28;20671;-64
2022/03/04 00:53:36;;;;;;;14.38;5.35;;;9.10;67.60;;;;;;5039681;28;20398;-64
2022/03/04 00:56:02;;;;;;;17.95;6.68;;;9.00;67.70;;;;;;5041166;28;20485;-64
2022/03/04 00:58:28;;;;;;;13.00;5.70;;;9.10;67.50;;;;;;5039629;28;20035;-64
2022/03/04 01:00:54;;;;;;;19.65;6.13;;;9.00;67.50;;;;;;5045620;28;20052;-64
2022/03/04 01:03:20;;;;;;;14.80;6.88;;;9.00;67.50;;;;;;5040336;28;20374;-65
2022/03/04 01:05:46;;;;;;;14.63;6.00;;;9.00;67.60;;;;;;5035777;28;20604;-64
2022/03/04 01:08:11;;;;;;;17.33;6.53;;;9.00;67.60;;;;;;5039635;28;20094;-64
2022/03/04 01:10:37;;;;;;;13.93;5.82;;;9.00;67.60;;;;;;5038177;28;20424;-65
2022/03/04 01:13:03;;;;;;;11.10;5.47;;;9.00;67.70;;;;;;5068625;23;20063;-62
2022/03/04 01:15:29;;;;;;;16.13;6.97;;;9.10;67.50;;;;;;5038493;28;20039;-62
2022/03/04 01:17:55;;;;;;;13.57;5.53;;;9.00;67.30;;;;;;5043538;28;20487;-64
2022/03/04 01:20:21;;;;;;;12.45;6.00;;;9.00;67.40;;;;;;5038883;28;20104;-64
2022/03/04 01:22:47;;;;;;;17.15;6.47;;;9.00;67.50;;;;;;5042956;28;20064;-64
2022/03/04 01:25:13;;;;;;;12.63;5.63;;;9.00;67.60;;;;;;5042351;28;20033;-64
2022/03/04 01:27:39;;;;;;;9.45;5.40;;;9.00;67.40;;;;;;5039073;28;20576;-64
2022/03/04 01:30:08;;;;;;;17.58;5.60;;;9.00;67.50;;;;;;5025154;28;20041;-64
2022/03/04 01:32:34;;;;;;;18.83;6.70;;;9.00;67.50;;;;;;5039791;28;20486;-64
2022/03/04 01:34:59;;;;;;;15.88;7.05;;;9.00;67.70;;;;;;5039214;28;20103;-64
2022/03/04 01:37:25;;;;;;;13.02;5.32;;;9.00;67.60;;;;;;5039792;28;20029;-64
2022/03/04 01:39:51;;;;;;;11.50;5.40;;;9.00;67.50;;;;;;5041751;28;20351;-65
2022/03/04 01:42:17;;;;;;;13.65;5.35;;;9.00;67.70;;;;;;5037632;28;20147;-65
2022/03/04 01:44:43;;;;;;;15.90;6.00;;;9.00;67.70;;;;;;5022419;28;20041;-64
2022/03/04 01:47:09;;;;;;;16.58;6.43;;;9.00;67.70;;;;;;5041467;28;20025;-64
2022/03/04 01:49:35;;;;;;;27.30;6.57;;;9.00;67.60;;;;;;5021553;28;20490;-64
2022/03/04 01:52:01;;;;;;;17.25;7.28;;;9.00;67.70;;;;;;5044436;28;20025;-64
2022/03/04 01:54:27;;;;;;;14.07;5.70;;;9.00;67.90;;;;;;5028800;28;20025;-64
2022/03/04 01:56:53;;;;;;;14.13;6.13;;;9.00;67.90;;;;;;5041265;28;20485;-64
2022/03/04 01:59:19;;;;;;;14.50;6.75;;;9.00;67.90;;;;;;5022182;28;20082;-64
2022/03/04 02:01:45;;;;;;;16.55;6.80;;;9.00;67.90;;;;;;5041331;28;20029;-65
2022/03/04 02:04:10;;;;;;;13.23;5.78;;;8.90;67.90;;;;;;5041453;28;20398;-64
2022/03/04 02:06:36;;;;;;;13.40;5.60;;;8.90;67.90;;;;;;5036416;28;20021;-64
2022/03/04 02:09:03;;;;;;;13.95;6.22;;;8.90;68.10;;;;;;5031274;28;20417;-64
2022/03/04 02:11:29;;;;;;;15.05;6.80;;;9.00;68.00;;;;;;5038976;28;20024;-64
2022/03/04 02:13:55;;;;;;;15.15;6.55;;;9.00;68.10;;;;;;5028724;28;20041;-64
2022/03/04 02:16:26;;;;;;;12.70;5.95;;;9.00;67.90;;;;;;5039235;28;20108;-64
2022/03/04 02:18:53;;;;;;;14.20;6.55;;;8.90;68.00;;;;;;5059694;28;20377;-64
2022/03/04 02:21:22;;;;;;;10.70;6.07;;;8.90;67.90;;;;;;5055927;28;20020;-63
2022/03/04 02:23:48;;;;;;;14.80;5.70;;;8.90;68.20;;;;;;5059072;28;20035;-64
2022/03/04 02:26:14;;;;;;;23.35;6.47;;;8.90;68.20;;;;;;5049102;28;20033;-64
2022/03/04 02:28:40;;;;;;;12.75;6.03;;;8.90;68.10;;;;;;5055210;28;20535;-64
2022/03/04 02:31:06;;;;;;;13.90;6.40;;;8.90;68.20;;;;;;5067893;28;20024;-64
2022/03/04 02:33:32;;;;;;;18.23;6.22;;;9.00;68.20;;;;;;5062864;28;20429;-64
2022/03/04 02:35:58;;;;;;;17.23;7.03;;;8.90;68.00;;;;;;5053854;28;20439;-64
2022/03/04 02:38:23;;;;;;;16.13;7.10;;;8.90;68.10;;;;;;5057886;28;20496;-64
2022/03/04 02:40:49;;;;;;;20.17;6.05;;;8.90;68.00;;;;;;5063680;28;20025;-64
2022/03/04 02:43:15;;;;;;;14.20;6.35;;;8.90;67.90;;;;;;5064471;28;20272;-64
2022/03/04 02:45:41;;;;;;;32.35;7.07;;;8.90;68.00;;;;;;5063562;28;20551;-64
2022/03/04 02:48:06;;;;;;;14.48;6.03;;;8.90;68.20;;;;;;5067049;28;20199;-64
2022/03/04 02:50:32;;;;;;;20.08;7.15;;;8.90;67.90;;;;;;5064204;28;20028;-64
2022/03/04 02:52:58;;;;;;;14.43;6.15;;;8.90;68.80;;;;;;5066493;28;20104;-64
2022/03/04 02:55:24;;;;;;;22.88;6.53;;;8.90;67.90;;;;;;5062984;28;20119;-64
2022/03/04 02:57:49;;;;;;;18.65;6.70;;;8.90;68.00;;;;;;5066417;28;20451;-64
2022/03/04 03:00:16;;;;;;;14.10;6.55;;;8.90;67.90;;;;;;5061634;28;20040;-63
2022/03/04 03:02:43;;;;;;;16.25;6.53;;;8.90;67.90;;;;;;5066052;28;20596;-64
2022/03/04 03:05:12;;;;;;;17.65;6.28;;;8.90;68.10;;;;;;5065014;28;20509;-64
2022/03/04 03:07:38;;;;;;;15.60;6.07;;;8.90;68.20;;;;;;5064948;28;20161;-64
2022/03/04 03:10:04;;;;;;;14.88;6.13;;;8.90;68.00;;;;;;5060671;28;20025;-64
2022/03/04 03:12:30;;;;;;;15.48;6.70;;;8.90;68.10;;;;;;5063906;28;20021;-64
2022/03/04 03:14:56;;;;;;;13.60;6.00;;;8.90;68.10;;;;;;5066118;28;20056;-64
2022/03/04 03:17:22;;;;;;;15.68;6.88;;;8.90;67.90;;;;;;5060694;28;20054;-64
2022/03/04 03:19:47;;;;;;;18.15;6.55;;;8.90;68.00;;;;;;5065114;28;20087;-64
2022/03/04 03:22:16;;;;;;;19.95;6.57;;;8.90;68.10;;;;;;5063650;28;20113;-64
2022/03/04 03:24:42;;;;;;;13.98;7.38;;;8.90;68.80;;;;;;5066451;28;20470;-64
2022/03/04 03:27:08;;;;;;;30.73;7.47;;;8.90;68.00;;;;;;5055412;28;20033;-64
2022/03/04 03:29:33;;;;;;;15.65;6.40;;;8.90;68.00;;;;;;5065090;28;20028;-64
2022/03/04 03:32:00;;;;;;;15.48;6.55;;;8.90;68.10;;;;;;5066248;28;20526;-64
2022/03/04 03:34:26;;;;;;;14.95;6.80;;;8.90;68.00;;;;;;5047617;28;20035;-64
2022/03/04 03:36:51;;;;;;;10.50;5.90;;;8.90;68.00;;;;;;5061533;28;20020;-64
2022/03/04 03:39:17;;;;;;;17.20;7.82;;;8.90;68.10;;;;;;5063141;28;20393;-64
2022/03/04 03:41:42;;;;;;;20.05;7.60;;;8.80;67.90;;;;;;5033445;28;20131;-65
2022/03/04 03:44:08;;;;;;;20.75;6.63;;;8.80;68.00;;;;;;5034730;28;20646;-64
2022/03/04 03:46:34;;;;;;;21.30;7.03;;;8.80;68.00;;;;;;5062442;28;20024;-66
2022/03/04 03:48:59;;;;;;;20.80;7.97;;;8.80;68.10;;;;;;5063921;28;20028;-64
2022/03/04 03:51:25;;;;;;;18.90;7.20;;;8.80;68.70;;;;;;5063191;28;20162;-64
2022/03/04 03:53:51;;;;;;;19.25;7.80;;;8.80;68.00;;;;;;5058163;28;20533;-64
2022/03/04 03:56:16;;;;;;;15.40;6.40;;;8.80;68.00;;;;;;5049062;28;20405;-64
2022/03/04 03:58:42;;;;;;;16.08;7.00;;;8.80;68.00;;;;;;5057622;28;20065;-64
2022/03/04 04:01:08;;;;;;;16.48;6.75;;;8.80;68.20;;;;;;5049476;28;20461;-64
2022/03/04 04:03:34;;;;;;;21.35;6.68;;;8.80;67.90;;;;;;5062465;28;20032;-64
2022/03/04 04:05:59;;;;;;;21.40;7.82;;;8.80;68.00;;;;;;5046539;28;20029;-63
2022/03/04 04:08:25;;;;;;;15.35;6.78;;;8.80;68.10;;;;;;5051605;28;20029;-64
2022/03/04 04:10:50;;;;;;;28.08;7.25;;;8.80;68.00;;;;;;5045471;28;20508;-64
2022/03/04 04:13:16;;;;;;;20.33;7.07;;;8.80;68.00;;;;;;5034162;28;20107;-64
2022/03/04 04:15:42;;;;;;;17.52;7.50;;;8.80;68.00;;;;;;5038745;28;20083;-64
2022/03/04 04:18:08;;;;;;;15.07;6.38;;;8.80;68.00;;;;;;5063585;28;20021;-64
2022/03/04 04:20:35;;;;;;;29.02;6.97;;;8.80;68.00;;;;;;5048430;28;20028;-64
2022/03/04 04:23:00;;;;;;;17.42;6.80;;;8.80;68.00;;;;;;5054318;28;20017;-64
2022/03/04 04:25:26;;;;;;;25.00;8.77;;;8.80;67.90;;;;;;5035706;28;20401;-64
2022/03/04 04:27:52;;;;;;;19.25;8.15;;;8.80;68.00;;;;;;5059560;28;20025;-64
2022/03/04 04:30:17;;;;;;;17.20;7.72;;;8.80;68.00;;;;;;5058645;28;20129;-64
2022/03/04 04:32:43;;;;;;;20.40;6.03;;;8.80;68.10;;;;;;5060594;28;20029;-64
2022/03/04 04:35:09;;;;;;;14.63;6.25;;;8.80;68.00;;;;;;5060565;28;20021;-64
2022/03/04 04:37:35;;;;;;;19.35;6.18;;;8.80;68.00;;;;;;5040782;28;20521;-64
2022/03/04 04:40:01;;;;;;;16.88;7.35;;;8.80;68.10;;;;;;5059947;28;20149;-64
2022/03/04 04:42:26;;;;;;;16.58;7.22;;;8.70;68.20;;;;;;5064959;28;20082;-63
2022/03/04 04:44:52;;;;;;;22.63;7.82;;;8.70;68.10;;;;;;5059491;28;20028;-64
2022/03/04 04:47:18;;;;;;;15.27;6.10;;;8.70;68.00;;;;;;5049228;28;20021;-64
2022/03/04 04:49:44;;;;;;;15.88;7.03;;;8.70;68.10;;;;;;5054836;28;20106;-64
2022/03/04 04:52:10;;;;;;;17.25;7.38;;;8.80;68.20;;;;;;5029534;28;20072;-64
2022/03/04 04:54:36;;;;;;;20.48;6.63;;;8.70;68.10;;;;;;5043186;28;20372;-64
2022/03/04 04:57:02;;;;;;;18.85;7.40;;;8.80;68.20;;;;;;5039793;28;20024;-64
2022/03/04 04:59:37;;;;;;;21.65;7.93;;;8.70;68.20;;;;;;5058586;28;20024;-64
2022/03/04 05:02:03;;;;;;;23.77;7.55;;;8.70;68.10;;;;;;5049939;28;20115;-64
2022/03/04 05:04:29;;;;;;;21.35;7.93;;;8.70;68.10;;;;;;5048848;28;20025;-64
2022/03/04 05:06:56;;;;;;;22.90;8.95;;;8.70;68.20;;;;;;5063535;28;20465;-64
2022/03/04 05:09:22;;;;;;;17.67;7.05;;;8.70;68.20;;;;;;5062311;28;20039;-64
2022/03/04 05:11:47;;;;;;;20.10;7.43;;;8.70;68.10;;;;;;5062168;28;20032;-64
2022/03/04 05:14:13;;;;;;;16.48;7.38;;;8.70;68.10;;;;;;5054062;28;20110;-63
2022/03/04 05:16:39;;;;;;;18.00;7.32;;;8.70;68.10;;;;;;5054787;28;20055;-63
2022/03/04 05:19:04;;;;;;;16.83;7.45;;;8.70;68.20;;;;;;5058636;28;20500;-63
2022/03/04 05:21:30;;;;;;;18.92;7.20;;;8.70;68.20;;;;;;5057667;28;20021;-63
2022/03/04 05:23:59;;;;;;;22.42;8.05;;;8.70;68.10;;;;;;5057589;28;20375;-63
2022/03/04 05:26:26;;;;;;;16.88;7.60;;;8.70;68.90;;;;;;5062342;28;20078;-63
2022/03/04 05:28:52;;;;;;;14.20;6.97;;;8.70;68.20;;;;;;5055209;28;20505;-63
2022/03/04 05:31:18;;;;;;;16.63;7.43;;;8.70;68.10;;;;;;5064271;28;20063;-62
2022/03/04 05:33:43;;;;;;;20.48;7.93;;;8.70;68.10;;;;;;5053408;28;20613;-63
2022/03/04 05:36:10;;;;;;;24.38;7.78;;;8.70;68.10;;;;;;5059756;28;20078;-63
2022/03/04 05:38:35;;;;;;;17.83;6.72;;;8.70;68.10;;;;;;5061700;28;20041;-63
2022/03/04 05:41:01;;;;;;;20.98;7.45;;;8.70;68.10;;;;;;5061431;28;20093;-63
2022/03/04 05:43:27;;;;;;;19.92;7.75;;;8.70;68.20;;;;;;5072235;28;20099;-63
2022/03/04 05:45:53;;;;;;;29.35;8.82;;;8.70;68.10;;;;;;5060601;28;20036;-63
2022/03/04 05:48:19;;;;;;;23.52;8.25;;;8.70;68.20;;;;;;5058868;28;20363;-63
2022/03/04 05:50:45;;;;;;;17.98;7.70;;;8.70;68.10;;;;;;5060430;28;20056;-64
2022/03/04 05:53:10;;;;;;;20.98;7.80;;;8.70;68.10;;;;;;5057551;28;20055;-63
2022/03/04 05:55:36;;;;;;;20.35;7.38;;;8.70;68.10;;;;;;5058454;28;20061;-63
2022/03/04 05:58:02;;;;;;;23.55;7.85;;;8.70;68.10;;;;;;5069807;28;20492;-63
2022/03/04 06:00:28;;;;;;;16.05;6.85;;;8.70;68.00;;;;;;5057300;28;20432;-69
2022/03/04 06:02:54;;;;;;;22.02;8.07;;;8.70;67.60;;;;;;5050703;28;20024;-69
2022/03/04 06:05:23;;;;;;;16.48;7.05;;;8.70;67.00;;;;;;5031032;28;20060;-69
2022/03/04 06:07:48;;;;;;;23.73;7.25;;;8.60;66.90;;;;;;5053168;28;20037;-70
2022/03/04 06:10:14;;;;;;;20.63;7.50;;;8.60;66.40;;;;;;5050799;28;20016;-69
2022/03/04 06:12:39;;;;;;;20.40;7.72;;;8.50;66.20;;;;;;5036320;28;20052;-69
2022/03/04 06:15:06;;;;;;;18.58;7.65;;;8.50;65.20;;;;;;5063005;28;20043;-69
2022/03/04 06:17:31;;;;;;;17.90;7.75;;;8.50;64.60;;;;;;5046494;28;20025;-69
2022/03/04 06:19:57;;;;;;;22.15;8.75;;;8.50;63.90;;;;;;5049070;28;20531;-69
2022/03/04 06:22:23;;;;;;;19.95;8.63;;;8.50;63.80;;;;;;5055895;28;20028;-70
2022/03/04 06:24:49;;;;;;;19.48;7.32;;;8.40;63.80;;;;;;5057486;28;20037;-69
2022/03/04 06:27:15;;;;;;;21.38;7.75;;;8.40;63.60;;;;;;5051835;28;20385;-68
2022/03/04 06:29:41;;;;;;;20.48;7.53;;;8.40;63.40;;;;;;5049664;28;20028;-69
2022/03/04 06:32:07;;;;;;;22.55;8.48;;;8.40;62.90;;;;;;5055049;28;20421;-68
2022/03/04 06:34:34;;;;;;;19.45;7.38;;;8.40;62.70;;;;;;5048829;28;20444;-69
2022/03/04 06:37:00;;;;;;;25.83;7.50;;;8.40;63.10;;;;;;5048492;28;20375;-69
2022/03/04 06:39:26;;;;;;;18.15;6.93;;;8.40;62.50;;;;;;5047926;28;20036;-70
2022/03/04 06:41:51;;;;;;;23.88;8.68;;;8.40;62.70;;;;;;5047807;28;20032;-68
2022/03/04 06:44:17;;;;;;;22.08;8.27;;;8.40;63.10;;;;;;5029979;28;20033;-69
2022/03/04 06:46:43;;;;;;;26.88;8.10;;;8.40;62.30;;;;;;5055798;28;20436;-70
2022/03/04 06:49:10;;;;;;;19.05;8.15;;;8.40;61.60;;;;;;5055923;28;20033;-69
2022/03/04 06:51:39;;;;;;;27.17;8.80;;;8.40;62.00;;;;;;5051288;28;20033;-69
2022/03/04 06:54:06;;;;;;;29.48;10.10;;;8.40;61.60;;;;;;5050774;28;20017;-70
2022/03/04 06:56:31;;;;;;;17.83;7.93;;;8.40;61.80;;;;;;5051458;28;20087;-69
2022/03/04 06:58:57;;;;;;;17.95;7.78;;;8.40;61.60;;;;;;5053029;28;20586;-69
2022/03/04 07:01:24;;;;;;;19.13;7.57;;;8.40;61.00;;;;;;5049434;28;20134;-70
2022/03/04 07:03:50;;;;;;;24.67;8.02;;;8.40;61.30;;;;;;5050909;28;20040;-70
2022/03/04 07:06:16;;;;;;;18.50;8.40;;;8.40;60.60;;;;;;5050405;28;20101;-69
2022/03/04 07:08:42;;;;;;;22.30;9.23;;;8.40;59.90;;;;;;5053525;28;20721;-69
2022/03/04 07:11:08;;;;;;;14.95;7.22;;;8.50;61.10;;;;;;5049931;28;20418;-69
2022/03/04 07:13:34;;;;;;;20.15;8.20;;;8.50;61.10;;;;;;5053962;28;20132;-69
2022/03/04 07:16:01;;;;;;;23.75;8.15;;;8.50;60.70;;;;;;5056554;28;20120;-71
2022/03/04 07:18:29;;;;;;;24.50;8.57;;;8.50;60.90;;;;;;5055983;28;20103;-70
2022/03/04 07:20:56;;;;;;;26.65;9.20;;;8.50;60.90;;;;;;5053351;28;20052;-68
2022/03/04 07:23:23;;;;;;;22.88;10.18;;;8.50;60.90;;;;;;5050709;28;20028;-69
2022/03/04 07:25:48;;;;;;;21.23;8.63;;;8.50;60.20;;;;;;5049360;28;20052;-69
2022/03/04 07:28:14;;;;;;;24.23;8.88;;;8.50;60.60;;;;;;5050595;28;20537;-70
2022/03/04 07:30:40;;;;;;;28.88;9.60;;;8.60;61.00;;;;;;5051590;28;20013;-69
2022/03/04 07:33:06;;;;;;;28.63;8.00;;;8.60;60.00;;;;;;5058881;28;20036;-68
2022/03/04 07:35:32;;;;;;;24.10;9.38;;;8.60;60.50;;;;;;5052163;28;20025;-68
2022/03/04 07:37:57;;;;;;;25.85;9.35;;;8.70;60.60;;;;;;5050552;28;20025;-68
2022/03/04 07:40:23;;;;;;;22.17;9.13;;;8.80;60.50;;;;;;5050660;28;20025;-69
2022/03/04 07:42:48;;;;;;;24.40;10.02;;;8.80;60.60;;;;;;5050565;28;20355;-67
2022/03/04 07:45:14;;;;;;;27.42;9.60;;;8.90;60.30;;;;;;5051216;28;20083;-69
2022/03/04 07:47:42;;;;;;;21.05;8.68;;;8.90;59.60;;;;;;5049547;28;20025;-69
2022/03/04 07:50:10;;;;;;;27.08;10.85;;;8.90;59.70;;;;;;5050472;28;20037;-69
2022/03/04 07:52:36;;;;;;;24.23;9.65;;;8.90;60.40;;;;;;5052335;28;20555;-68
2022/03/04 07:55:05;;;;;;;26.73;12.23;;;8.90;60.20;;;;;;5048508;28;20029;-69
2022/03/04 07:57:30;;;;;;;20.40;9.55;;;9.00;60.30;;;;;;5049863;28;20082;-69
2022/03/04 07:59:57;;;;;;;26.05;9.95;;;9.00;59.50;;;;;;5047577;28;20605;-70
2022/03/04 08:02:22;;;;;;;24.48;9.20;;;9.00;59.60;;;;;;5048423;28;20080;-68
2022/03/04 08:04:48;;;;;;;26.65;10.73;;;9.10;59.70;;;;;;5049569;28;20075;-68
2022/03/04 08:07:14;;;;;;;24.92;10.10;;;9.10;59.80;;;;;;5056273;28;20379;-68
2022/03/04 08:09:41;;;;;;;28.70;12.05;;;9.10;59.50;;;;;;5048649;28;20132;-68
2022/03/04 08:12:07;;;;;;;28.50;9.48;;;9.10;60.40;;;;;;5048482;28;20089;-69
2022/03/04 08:14:33;;;;;;;20.08;10.48;;;9.10;61.30;;;;;;5049024;28;20048;-69
2022/03/04 08:16:59;;;;;;;28.08;11.25;;;9.10;61.60;;;;;;5046190;28;20469;-70
2022/03/04 08:19:24;;;;;;;23.42;10.45;;;9.10;59.60;;;;;;5046504;28;20036;-68
2022/03/04 08:21:50;;;;;;;26.40;10.50;;;9.10;59.90;;;;;;5048955;28;20127;-70
2022/03/04 08:24:16;;;;;;;30.95;11.60;;;9.20;59.40;;;;;;5048849;28;20090;-68
2022/03/04 08:26:41;;;;;;;27.38;11.65;;;9.20;61.80;;;;;;5049600;28;20043;-69
2022/03/04 08:29:10;;;;;;;30.35;11.57;;;9.20;59.40;;;;;;5050748;28;20048;-70
2022/03/04 08:31:37;;;;;;;27.60;12.15;;;9.20;60.50;;;;;;5049635;28;20031;-70
2022/03/04 08:34:03;;;;;;;29.92;12.07;;;9.20;60.90;;;;;;5050642;28;20470;-69
2022/03/04 08:36:29;;;;;;;26.13;11.20;;;9.20;62.10;;;;;;5049691;28;20025;-69
2022/03/04 08:38:55;;;;;;;31.38;11.38;;;9.30;60.30;;;;;;5049347;28;20024;-68
2022/03/04 08:41:21;;;;;;;29.10;13.13;;;9.30;61.10;;;;;;5049217;28;20086;-69
2022/03/04 08:43:47;;;;;;;40.28;14.77;;;9.30;62.50;;;;;;5050307;28;20029;-68
2022/03/04 08:46:14;;;;;;;32.38;13.68;;;9.30;62.80;;;;;;5050166;28;20095;-69
2022/03/04 08:48:43;;;;;;;26.83;11.40;;;9.30;61.30;;;;;;5065659;28;20028;-69
2022/03/04 08:51:09;;;;;;;35.70;13.35;;;9.30;61.20;;;;;;5070885;28;20017;-68
2022/03/04 08:53:35;;;;;;;29.95;12.05;;;9.30;62.40;;;;;;5069254;28;20111;-69
2022/03/04 08:56:01;;;;;;;28.77;12.98;;;9.30;60.80;;;;;;5060931;28;20059;-70
2022/03/04 08:58:27;;;;;;;31.67;13.50;;;9.30;61.40;;;;;;5049877;28;20447;-70
2022/03/04 09:00:53;;;;;;;34.22;15.07;;;9.30;61.40;;;;;;5050151;28;20024;-69
2022/03/04 09:03:18;;;;;;;32.67;13.45;;;9.30;61.70;;;;;;5049881;28;20367;-68
2022/03/04 09:05:44;;;;;;;29.90;12.73;;;9.30;60.30;;;;;;5050227;28;20532;-69
2022/03/04 09:08:10;;;;;;;30.25;11.70;;;9.30;61.70;;;;;;5049560;28;20025;-70
2022/03/04 09:10:36;;;;;;;34.67;12.45;;;9.20;59.30;;;;;;5049573;28;20171;-69
2022/03/04 09:13:01;;;;;;;37.05;13.20;;;9.30;60.40;;;;;;5049054;28;20538;-69
2022/03/04 09:15:27;;;;;;;32.05;13.75;;;9.20;61.30;;;;;;5049271;28;20029;-68
2022/03/04 09:17:53;;;;;;;31.67;13.68;;;9.30;59.90;;;;;;5046404;28;20025;-69
2022/03/04 09:20:21;;;;;;;28.77;12.50;;;9.30;59.60;;;;;;5049506;28;20021;-70
2022/03/04 09:22:47;;;;;;;29.65;12.55;;;9.30;61.00;;;;;;5048061;28;20029;-69
2022/03/04 09:25:14;;;;;;;30.13;13.60;;;9.30;59.80;;;;;;5048939;28;20501;-70
2022/03/04 09:27:44;;;;;;;26.75;12.93;;;9.30;59.00;;;;;;5049926;28;20108;-70
2022/03/04 09:30:11;;;;;;;;;;;9.30;61.30;;;;;;5049421;28;20032;-69
2022/03/04 09:32:37;;;;;;;26.27;11.70;;;9.40;59.70;;;;;;5046101;28;19947;-69
2022/03/04 09:35:04;;;;;;;24.05;11.60;;;9.40;63.00;;;;;;5050590;28;20053;-69
2022/03/04 09:37:30;;;;;;;34.45;12.23;;;9.40;61.10;;;;;;5048045;28;20525;-69
2022/03/04 09:39:55;;;;;;;25.58;11.68;;;9.50;61.70;;;;;;5047518;28;20456;-72
2022/03/04 09:42:22;;;;;;;27.83;11.65;;;9.50;61.10;;;;;;5047832;28;20044;-69
2022/03/04 09:44:48;;;;;;;25.60;10.85;;;9.50;59.50;;;;;;5048995;28;20040;-71
2022/03/04 09:47:17;;;;;;;24.80;9.82;;;9.50;60.90;;;;;;5049065;28;20025;-70
2022/03/04 09:49:43;;;;;;;25.95;10.60;;;9.50;59.80;;;;;;5048659;28;20028;-69
2022/03/04 09:52:09;;;;;;;24.10;11.43;;;9.50;61.00;;;;;;5048596;28;20029;-70
2022/03/04 09:54:35;;;;;;;25.27;11.05;;;9.60;59.80;;;;;;5049413;28;20028;-69
2022/03/04 09:57:01;;;;;;;29.23;11.55;;;9.50;60.00;;;;;;5047999;28;20033;-69
2022/03/04 09:59:26;;;;;;;30.40;10.63;;;9.60;61.70;;;;;;5048653;28;20032;-71
2022/03/04 10:01:52;;;;;;;28.60;10.40;;;9.60;59.50;;;;;;5046665;28;20040;-70
2022/03/04 10:04:18;;;;;;;31.48;11.50;;;9.60;61.10;;;;;;5051555;28;20746;-69
2022/03/04 10:06:49;;;;;;;26.50;12.15;;;9.70;60.60;;;;;;5048886;28;20096;-69
2022/03/04 10:09:36;;;;;;;32.90;12.88;;;9.70;60.70;;;;;;5045349;28;20043;-69
2022/03/04 10:12:04;;;;;;;26.75;8.98;;;9.70;60.00;;;;;;5048207;28;20386;-69
2022/03/04 10:14:29;;;;;;;29.92;12.57;;;9.70;61.00;;;;;;5046998;28;20024;-69
2022/03/04 10:16:57;;;;;;;24.58;10.07;;;9.70;59.90;;;;;;5048814;28;20051;-70
2022/03/04 10:19:23;;;;;;;35.40;12.65;;;9.70;59.50;;;;;;5045766;28;20025;-70
2022/03/04 10:22:05;;;;;;;33.83;13.07;;;9.70;58.40;;;;;;5048108;28;20701;-70
2022/03/04 10:24:35;;;;;;;13.98;6.72;;;9.80;59.00;;;;;;5046514;28;20500;-69
2022/03/04 10:27:12;;;;;;;28.80;11.88;;;9.80;61.30;;;;;;5049466;28;20025;-63
2022/03/04 10:29:50;;;;;;;26.73;10.60;;;9.80;56.70;;;;;;5048921;28;20021;-63
2022/03/04 10:32:19;;;;;;;27.08;11.23;;;9.40;54.10;;;;;;5049378;28;20588;-63
2022/03/04 10:34:55;;;;;;;29.65;12.75;;;8.90;52.80;;;;;;5048272;28;20112;-64
2022/03/04 10:37:22;;;;;;;14.73;5.53;;;8.90;51.80;;;;;;5049661;28;20104;-63
2022/03/04 10:40:11;;;;;;;31.73;13.55;;;8.80;50.90;;;;;;5048906;28;20096;-64
2022/03/04 10:42:51;;;;;;;27.40;8.75;;;8.70;51.70;;;;;;5037421;28;20083;-63
2022/03/04 10:45:34;;;;;;;31.88;12.65;;;8.70;51.00;;;;;;5046158;28;20041;-63
2022/03/04 10:48:02;;;;;;;26.50;10.80;;;8.70;51.40;;;;;;5045952;28;20082;-63
2022/03/04 10:50:34;;;;;;;19.73;7.32;;;8.60;50.90;;;;;;5046797;28;20033;-63
2022/03/04 10:53:05;;;;;;;28.75;11.45;;;8.80;50.70;;;;;;5047850;28;20040;-63
2022/03/04 10:55:51;;;;;;;28.20;9.95;;;8.90;50.50;;;;;;5051673;28;20509;-63
2022/03/04 10:58:18;;;;;;;23.83;10.00;;;8.90;50.50;;;;;;5032127;28;20033;-71
2022/03/04 11:00:52;;;;;;;25.27;10.30;;;9.00;51.00;;;;;;5047184;28;20029;-69
2022/03/04 11:03:26;;;;;;;25.83;9.75;;;9.30;51.90;;;;;;5049569;28;20148;-69
2022/03/04 11:05:56;;;;;;;23.25;10.98;;;9.60;54.00;;;;;;5049810;28;20132;-69
2022/03/04 11:08:22;;;;;;;34.22;12.80;;;9.80;53.80;;;;;;5050560;28;20028;-71
2022/03/04 11:10:49;;;;;;;24.02;9.82;;;9.90;53.60;;;;;;5049908;28;20033;-69
2022/03/04 11:13:15;;;;;;;34.50;13.88;;;10.00;54.10;;;;;;5050346;28;20078;-71
2022/03/04 11:15:42;;;;;;;21.10;9.48;;;10.10;53.80;;;;;;5050683;28;20021;-70
2022/03/04 11:18:10;;;;;;;21.17;8.57;;;10.10;54.90;;;;;;5049951;28;20021;-71
2022/03/04 11:20:37;;;;;;;27.63;11.00;;;10.20;53.90;;;;;;5051484;28;20107;-71
2022/03/04 11:23:03;;;;;;;20.20;9.30;;;10.30;53.90;;;;;;5051633;28;20029;-69
2022/03/04 11:25:41;;;;;;;25.38;11.02;;;10.30;53.70;;;;;;5052370;28;20040;-70
2022/03/04 11:28:17;;;;;;;24.65;8.48;;;10.40;54.80;;;;;;5049688;28;20056;-70
2022/03/04 11:31:00;;;;;;;21.88;9.32;;;10.50;54.60;;;;;;5051765;28;20028;-69
2022/03/04 11:33:31;;;;;;;23.20;9.65;;;10.60;55.10;;;;;;5052575;28;20550;-69
2022/03/04 11:36:15;;;;;;;;;;;10.70;54.80;;;;;;5054893;28;20100;-71
2022/03/04 11:38:46;;;;;;;25.38;8.55;;;10.60;54.90;;;;;;5052059;28;19905;-71
2022/03/04 11:41:27;;;;;;;26.35;9.52;;;10.70;54.80;;;;;;5051470;28;20483;-70
2022/03/04 11:43:56;;;;;;;19.52;9.15;;;10.80;54.40;;;;;;5050860;28;20025;-70
2022/03/04 11:46:25;;;;;;;19.63;9.05;;;10.80;54.60;;;;;;5049168;28;20497;-70
2022/03/04 11:49:38;;;;;;;28.02;10.20;;;10.80;54.80;;;;;;5031015;28;20025;-71
2022/03/04 11:52:15;;;;;;;24.65;9.75;;;10.90;54.40;;;;;;4968872;28;20045;-69
2022/03/04 11:54:41;;;;;;;19.23;9.25;;;11.00;54.50;;;;;;4970176;28;20113;-71
2022/03/04 11:57:17;;;;;;;5.30;2.72;;;11.00;53.80;;;;;;4969799;28;20392;-71
2022/03/04 12:00:09;;;;;;;21.45;8.98;;;11.10;53.20;;;;;;4969360;28;20026;-69
2022/03/04 12:02:48;;;;;;;29.13;10.52;;;11.10;55.10;;;;;;4968723;28;20042;-71
2022/03/04 12:05:21;;;;;;;15.55;6.28;;;11.10;54.90;;;;;;4968233;28;20035;-71
2022/03/04 12:08:05;;;;;;;8.57;4.35;;;11.10;54.70;;;;;;4969865;28;20069;-71
2022/03/04 12:10:31;;;;;;;14.80;7.38;;;11.20;51.50;;;;;;4970128;28;20035;-69
2022/03/04 12:13:02;;;;;;;28.88;11.45;;;11.20;52.20;;;;;;4968695;28;20189;-69
2022/03/04 12:15:29;;;;;;;18.70;8.15;;;11.20;54.40;;;;;;4969379;28;20053;-71
2022/03/04 12:17:59;;;;;;;32.33;11.90;;;11.20;54.80;;;;;;4968851;28;20086;-61
2022/03/04 12:20:37;;;;;;;22.20;9.40;;;11.00;46.40;;;;;;4966249;28;20035;-62
2022/03/04 12:23:12;;;;;;;28.70;11.63;;;10.50;46.80;;;;;;4995031;28;20073;-61
2022/03/04 12:25:56;;;;;;;19.77;8.20;;;9.90;43.30;;;;;;5011103;28;20443;-61
2022/03/04 12:28:21;;;;;;;23.02;9.27;;;10.10;46.80;;;;;;5008566;28;20029;-62
2022/03/04 12:31:07;;;;;;;17.10;6.53;;;10.00;46.60;;;;;;5021027;28;20028;-62
2022/03/04 12:33:54;;;;;;;21.02;8.95;;;10.10;45.30;;;;;;5010243;28;20030;-62
2022/03/04 12:36:21;;;;;;;16.65;6.30;;;9.90;45.30;;;;;;5010301;28;20466;-62
2022/03/04 12:38:49;;;;;;;19.65;8.80;;;10.00;44.20;;;;;;5010587;28;20064;-63
2022/03/04 12:41:17;;;;;;;22.02;8.20;;;10.10;45.20;;;;;;5010068;28;20022;-62
2022/03/04 12:43:45;;;;;;;21.85;8.30;;;10.00;45.20;;;;;;5010684;28;20526;-62
2022/03/04 12:46:11;;;;;;;22.25;9.38;;;10.20;45.40;;;;;;5023485;28;20038;-62